createdAt,value
2018-02-02T00:00:44.726Z,87.40
2018-02-02T00:03:12.987Z,87.30
2018-02-02T00:05:40.479Z,87.30
2018-02-02T00:08:07.966Z,87.00
2018-02-02T00:10:36.227Z,85.90
2018-02-02T00:13:03.738Z,85.80
2018-02-02T00:15:31.226Z,86.50
2018-02-02T00:17:58.731Z,87.00
2018-02-02T00:20:26.228Z,87.80
2018-02-02T00:22:54.516Z,87.40
2018-02-02T00:25:22.059Z,87.20
2018-02-02T00:27:50.319Z,87.50
2018-02-02T00:30:17.828Z,87.50
2018-02-02T00:32:45.318Z,87.60
2018-02-02T00:35:12.806Z,87.00
2018-02-02T00:37:41.079Z,85.30
2018-02-02T00:40:08.571Z,85.30
2018-02-02T00:42:36.074Z,86.10
2018-02-02T00:45:03.575Z,85.70
2018-02-02T00:47:31.836Z,83.70
2018-02-02T00:50:00.113Z,82.40
2018-02-02T00:52:28.407Z,82.80
2018-02-02T00:54:55.906Z,82.70
2018-02-02T00:57:23.410Z,81.60
2018-02-02T00:59:50.914Z,82.50
2018-02-02T01:02:18.436Z,83.00
2018-02-02T01:04:46.700Z,84.00
2018-02-02T01:07:14.980Z,83.20
2018-02-02T01:09:43.272Z,83.60
2018-02-02T01:12:11.527Z,83.50
2018-02-02T01:14:39.806Z,83.40
2018-02-02T01:17:08.090Z,82.40
2018-02-02T01:19:36.351Z,83.50
2018-02-02T01:22:04.618Z,83.30
2018-02-02T01:24:32.135Z,83.30
2018-02-02T01:26:59.619Z,83.60
2018-02-02T01:29:27.112Z,81.70
2018-02-02T01:31:55.387Z,81.00
2018-02-02T01:34:23.659Z,80.80
2018-02-02T01:36:52.020Z,80.70
2018-02-02T01:39:19.514Z,80.70
2018-02-02T01:41:46.998Z,80.80
2018-02-02T01:44:14.486Z,81.30
2018-02-02T01:46:41.980Z,81.10
2018-02-02T01:49:10.243Z,81.90
2018-02-02T01:51:38.513Z,81.70
2018-02-02T01:54:06.010Z,81.70
2018-02-02T01:56:33.495Z,80.60
2018-02-02T01:59:01.762Z,81.40
2018-02-02T02:01:29.250Z,81.40
2018-02-02T02:03:56.757Z,81.60
2018-02-02T02:06:24.255Z,82.10
2018-02-02T02:08:51.756Z,83.00
2018-02-02T02:11:20.011Z,82.60
2018-02-02T02:13:47.505Z,82.60
2018-02-02T02:16:14.982Z,82.80
2018-02-02T02:18:42.487Z,83.20
2018-02-02T02:21:10.748Z,84.20
2018-02-02T02:23:38.247Z,84.20
2018-02-02T02:26:05.742Z,83.90
2018-02-02T02:28:33.231Z,83.70
2018-02-02T02:31:00.710Z,84.00
2018-02-02T02:33:28.308Z,84.90
2018-02-02T02:35:55.818Z,84.70
2018-02-02T02:38:24.088Z,84.40
2018-02-02T02:40:52.362Z,84.10
2018-02-02T02:43:20.628Z,84.70
2018-02-02T02:45:48.115Z,84.60
2018-02-02T02:48:15.606Z,85.10
2018-02-02T02:50:43.094Z,85.20
2018-02-02T02:53:10.598Z,85.30
2018-02-02T02:55:38.083Z,85.00
2018-02-02T02:58:05.601Z,84.90
2018-02-02T03:00:33.855Z,84.80
2018-02-02T03:03:02.118Z,84.90
2018-02-02T03:05:29.744Z,84.10
2018-02-02T03:07:57.239Z,83.90
2018-02-02T03:10:24.721Z,83.90
2018-02-02T03:12:53.092Z,83.90
2018-02-02T03:15:21.343Z,84.10
2018-02-02T03:17:48.840Z,84.10
2018-02-02T03:20:16.337Z,82.80
2018-02-02T03:22:43.842Z,82.90
2018-02-02T03:25:11.346Z,83.40
2018-02-02T03:27:38.847Z,83.40
2018-02-02T03:30:07.125Z,82.30
2018-02-02T03:32:35.386Z,82.30
2018-02-02T03:35:02.911Z,82.30
2018-02-02T03:37:30.415Z,81.70
2018-02-02T03:39:58.699Z,82.20
2018-02-02T03:42:27.810Z,82.30
2018-02-02T03:44:55.323Z,82.30
2018-02-02T03:47:22.837Z,81.80
2018-02-02T03:49:50.351Z,82.40
2018-02-02T03:52:17.835Z,82.70
2018-02-02T03:54:45.355Z,82.10
2018-02-02T03:57:12.868Z,82.80
2018-02-02T03:59:40.366Z,83.20
2018-02-02T04:02:08.538Z,83.30
2018-02-02T04:04:36.030Z,83.30
2018-02-02T04:07:04.303Z,84.30
2018-02-02T04:09:32.580Z,84.80
2018-02-02T04:12:00.107Z,84.80
2018-02-02T04:14:27.602Z,85.00
2018-02-02T04:16:55.858Z,85.40
2018-02-02T04:19:23.391Z,85.40
2018-02-02T04:21:50.903Z,85.60
2018-02-02T04:24:18.420Z,85.80
2018-02-02T04:26:45.935Z,85.70
2018-02-02T04:29:13.459Z,85.60
2018-02-02T04:31:40.963Z,85.20
2018-02-02T04:34:08.491Z,85.60
2018-02-02T04:36:36.768Z,85.70
2018-02-02T04:39:05.077Z,85.70
2018-02-02T04:41:32.574Z,85.70
2018-02-02T04:44:00.067Z,85.70
2018-02-02T04:46:28.334Z,85.70
2018-02-02T04:48:56.590Z,86.00
2018-02-02T04:51:24.107Z,86.00
2018-02-02T04:53:51.602Z,85.90
2018-02-02T04:56:19.371Z,86.00
2018-02-02T04:58:46.976Z,86.30
2018-02-02T05:01:14.464Z,86.50
2018-02-02T05:03:41.979Z,86.50
2018-02-02T05:06:09.529Z,86.90
2018-02-02T05:08:37.042Z,87.00
2018-02-02T05:11:04.558Z,87.40
2018-02-02T05:13:32.055Z,87.60
2018-02-02T05:15:59.579Z,87.40
2018-02-02T05:18:27.078Z,87.50
2018-02-02T05:20:54.590Z,88.00
2018-02-02T05:23:22.146Z,88.70
2018-02-02T05:25:50.522Z,88.60
2018-02-02T05:28:17.998Z,88.60
2018-02-02T05:30:45.594Z,88.70
2018-02-02T05:33:13.095Z,88.80
2018-02-02T05:35:40.824Z,88.90
2018-02-02T05:38:08.359Z,88.70
2018-02-02T05:40:35.858Z,88.60
2018-02-02T05:43:03.362Z,88.10
2018-02-02T05:45:30.847Z,88.30
2018-02-02T05:47:58.323Z,88.00
2018-02-02T05:50:25.818Z,87.80
2018-02-02T05:52:54.095Z,88.20
2018-02-02T05:55:22.371Z,87.90
2018-02-02T05:57:50.640Z,87.90
2018-02-02T06:00:18.916Z,87.90
2018-02-02T06:02:47.194Z,87.90
2018-02-02T06:05:15.494Z,87.80
2018-02-02T06:07:43.094Z,87.70
2018-02-02T06:10:10.683Z,87.50
2018-02-02T06:12:38.232Z,87.30
2018-02-02T06:15:05.775Z,87.60
2018-02-02T06:17:33.286Z,87.30
2018-02-02T06:20:00.783Z,86.70
2018-02-02T06:22:28.294Z,86.50
2018-02-02T06:24:55.810Z,85.80
2018-02-02T06:27:23.313Z,85.30
2018-02-02T06:29:50.954Z,85.10
2018-02-02T06:32:19.211Z,85.10
2018-02-02T06:34:46.714Z,85.10
2018-02-02T06:37:14.240Z,85.50
2018-02-02T06:39:41.727Z,85.30
2018-02-02T06:42:09.244Z,85.30
2018-02-02T06:44:36.744Z,85.30
2018-02-02T06:47:04.251Z,85.30
2018-02-02T06:49:31.730Z,85.30
2018-02-02T06:51:59.319Z,85.60
2018-02-02T06:54:26.818Z,85.10
2018-02-02T06:56:54.312Z,84.10
2018-02-02T06:59:22.710Z,82.90
2018-02-02T07:01:50.223Z,82.80
2018-02-02T07:04:17.708Z,82.40
2018-02-02T07:06:45.967Z,83.10
2018-02-02T07:09:13.456Z,83.10
2018-02-02T07:11:40.963Z,83.40
2018-02-02T07:14:08.462Z,83.30
2018-02-02T07:16:36.764Z,84.20
2018-02-02T07:19:04.291Z,84.20
2018-02-02T07:21:32.558Z,84.30
2018-02-02T07:24:00.050Z,84.30
2018-02-02T07:26:27.871Z,84.80
2018-02-02T07:28:55.350Z,85.30
2018-02-02T07:31:23.626Z,84.70
2018-02-02T07:33:51.124Z,84.50
2018-02-02T07:36:18.616Z,83.80
2018-02-02T07:38:46.122Z,83.90
2018-02-02T07:41:13.595Z,83.00
2018-02-02T07:43:41.102Z,82.90
2018-02-02T07:46:09.350Z,81.70
2018-02-02T07:48:36.825Z,81.60
2018-02-02T07:51:04.378Z,82.50
2018-02-02T07:53:31.867Z,83.10
2018-02-02T07:56:00.263Z,83.20
2018-02-02T07:58:27.754Z,83.20
2018-02-02T08:01:01.967Z,82.80
2018-02-02T08:03:30.233Z,83.10
2018-02-02T08:05:57.741Z,83.00
2018-02-02T08:08:25.240Z,83.00
2018-02-02T08:10:52.723Z,82.70
2018-02-02T08:13:20.257Z,83.00
2018-02-02T08:15:47.788Z,82.50
2018-02-02T08:18:15.276Z,82.00
2018-02-02T08:20:42.787Z,82.20
2018-02-02T08:23:11.039Z,81.70
2018-02-02T08:25:38.538Z,81.70
2018-02-02T08:28:06.942Z,81.80
2018-02-02T08:30:34.438Z,81.90
2018-02-02T08:33:01.952Z,81.40
2018-02-02T08:35:29.463Z,81.90
2018-02-02T08:37:56.951Z,82.10
2018-02-02T08:40:24.548Z,81.60
2018-02-02T08:42:52.040Z,81.90
2018-02-02T08:45:19.531Z,81.60
2018-02-02T08:47:47.035Z,81.90
2018-02-02T08:50:14.511Z,81.90
2018-02-02T08:52:42.780Z,81.70
2018-02-02T08:55:11.039Z,81.00
2018-02-02T08:57:38.743Z,80.90
2018-02-02T09:00:07.002Z,81.50
2018-02-02T09:02:35.255Z,81.50
2018-02-02T09:05:02.747Z,81.50
2018-02-02T09:07:30.999Z,81.40
2018-02-02T09:09:58.483Z,81.40
2018-02-02T09:12:26.089Z,81.20
2018-02-02T09:14:53.624Z,82.00
2018-02-02T09:17:21.872Z,82.30
2018-02-02T09:19:50.141Z,81.50
2018-02-02T09:22:18.396Z,81.50
2018-02-02T09:24:45.884Z,81.40
2018-02-02T09:27:13.650Z,82.10
2018-02-02T09:29:41.146Z,82.00
2018-02-02T09:32:08.637Z,82.10
2018-02-02T09:34:36.120Z,82.60
2018-02-02T09:37:04.366Z,82.80
2018-02-02T09:39:31.974Z,82.80
2018-02-02T09:41:59.495Z,82.80
2018-02-02T09:44:26.955Z,82.90
2018-02-02T09:46:55.215Z,81.90
2018-02-02T09:49:22.694Z,81.70
2018-02-02T09:51:50.970Z,80.80
2018-02-02T09:54:19.222Z,80.10
2018-02-02T09:56:46.700Z,80.00
2018-02-02T09:59:14.964Z,79.10
2018-02-02T10:01:42.447Z,79.00
2018-02-02T10:04:09.935Z,79.10
2018-02-02T10:06:37.414Z,77.90
2018-02-02T10:09:04.907Z,77.10
2018-02-02T10:11:33.150Z,75.70
2018-02-02T10:14:00.639Z,75.70
2018-02-02T10:16:28.882Z,77.50
2018-02-02T10:18:56.363Z,76.70
2018-02-02T10:21:24.619Z,75.90
2018-02-02T10:23:52.103Z,75.90
2018-02-02T10:26:20.362Z,77.50
2018-02-02T10:28:48.663Z,76.40
2018-02-02T10:31:16.149Z,76.30
2018-02-02T10:33:43.639Z,75.80
2018-02-02T10:36:11.152Z,74.90
2018-02-02T10:38:38.647Z,76.50
2018-02-02T10:41:06.122Z,75.00
2018-02-02T10:43:33.598Z,75.40
2018-02-02T10:46:01.966Z,74.30
2018-02-02T10:48:30.223Z,75.80
2018-02-02T10:50:57.707Z,75.30
2018-02-02T10:53:25.962Z,74.50
2018-02-02T10:55:53.447Z,74.50
2018-02-02T10:58:21.715Z,73.80
2018-02-02T11:00:55.622Z,74.60
2018-02-02T11:03:39.613Z,74.90
2018-02-02T11:06:07.074Z,74.80
2018-02-02T11:08:34.666Z,74.10
2018-02-02T11:11:02.167Z,74.50
2018-02-02T11:13:29.653Z,74.90
2018-02-02T11:15:57.966Z,76.30
2018-02-02T11:18:25.413Z,76.30
2018-02-02T11:20:52.903Z,76.40
2018-02-02T11:23:20.391Z,75.80
2018-02-02T11:25:47.880Z,75.10
2018-02-02T11:28:15.354Z,74.70
2018-02-02T11:30:43.598Z,74.90
2018-02-02T11:33:11.855Z,75.00
2018-02-02T11:35:39.339Z,75.70
2018-02-02T11:38:06.848Z,74.90
2018-02-02T11:40:34.375Z,74.80
2018-02-02T11:43:02.670Z,74.70
2018-02-02T11:45:30.972Z,75.70
2018-02-02T11:47:58.484Z,75.70
2018-02-02T11:50:26.774Z,77.00
2018-02-02T11:52:55.048Z,77.20
2018-02-02T11:55:22.634Z,77.20
2018-02-02T11:57:50.164Z,77.00
2018-02-02T12:00:17.808Z,77.90
2018-02-02T12:02:46.074Z,78.10
2018-02-02T12:05:13.567Z,78.10
2018-02-02T12:07:41.071Z,77.80
2018-02-02T12:10:08.576Z,77.90
2018-02-02T12:12:36.869Z,79.50
2018-02-02T12:15:04.417Z,79.40
2018-02-02T12:17:31.944Z,79.80
2018-02-02T12:20:05.059Z,80.50
2018-02-02T12:22:53.182Z,80.50
2018-02-02T12:28:43.991Z,80.60
2018-02-02T12:31:27.172Z,80.70
2018-02-02T12:34:12.488Z,80.80
2018-02-02T12:36:40.824Z,81.00
2018-02-02T12:39:08.341Z,81.40
2018-02-02T12:41:35.864Z,80.50
2018-02-02T12:44:03.432Z,79.90
2018-02-02T12:46:30.957Z,80.20
2018-02-02T12:48:59.311Z,80.50
2018-02-02T12:51:27.626Z,80.40
2018-02-02T12:53:55.139Z,80.30
2018-02-02T12:56:23.401Z,80.60
2018-02-02T12:58:50.898Z,80.60
2018-02-02T13:01:18.547Z,80.70
2018-02-02T13:03:46.076Z,81.10
2018-02-02T13:06:13.588Z,81.40
2018-02-02T13:08:41.111Z,81.60
2018-02-02T13:11:09.362Z,81.30
2018-02-02T13:13:36.896Z,81.20
2018-02-02T13:16:05.204Z,81.30
2018-02-02T13:18:33.478Z,82.00
2018-02-02T13:21:00.980Z,82.00
2018-02-02T13:23:28.496Z,82.10
2018-02-02T13:25:56.007Z,82.80
2018-02-02T13:28:23.503Z,83.60
2018-02-02T13:30:51.007Z,82.90
2018-02-02T13:33:18.495Z,83.00
2018-02-02T13:35:45.994Z,83.40
2018-02-02T13:38:14.270Z,83.00
2018-02-02T13:40:42.650Z,82.80
2018-02-02T13:43:10.915Z,83.20
2018-02-02T13:45:38.412Z,83.20
2018-02-02T13:48:06.057Z,84.70
2018-02-02T13:50:33.559Z,84.10
2018-02-02T13:53:01.056Z,84.80
2018-02-02T13:55:29.335Z,83.90
2018-02-02T13:57:57.599Z,84.30
2018-02-02T14:00:25.091Z,84.20
2018-02-02T14:02:52.596Z,84.70
2018-02-02T14:05:20.126Z,85.00
2018-02-02T14:07:47.625Z,85.80
2018-02-02T14:10:15.145Z,86.00
2018-02-02T14:12:42.654Z,86.00
2018-02-02T14:15:10.927Z,86.80
2018-02-02T14:17:39.208Z,86.50
2018-02-02T14:20:07.486Z,86.40
2018-02-02T14:22:35.736Z,86.30
2018-02-02T14:25:03.250Z,86.30
2018-02-02T14:27:30.763Z,85.80
2018-02-02T14:29:58.250Z,85.90
2018-02-02T14:32:25.756Z,85.70
2018-02-02T14:34:53.247Z,86.30
2018-02-02T14:37:21.516Z,85.50
2018-02-02T14:39:49.767Z,85.50
2018-02-02T14:42:17.276Z,85.40
2018-02-02T14:44:44.758Z,85.30
2018-02-02T14:47:12.246Z,85.20
2018-02-02T14:49:39.747Z,85.30
2018-02-02T14:52:07.270Z,84.90
2018-02-02T14:54:34.762Z,84.70
2018-02-02T14:57:02.266Z,85.60
2018-02-02T14:59:29.787Z,86.00
2018-02-02T15:01:57.279Z,87.00
2018-02-02T15:04:25.575Z,88.70
2018-02-02T15:06:53.065Z,88.70
2018-02-02T15:09:20.567Z,89.50
2018-02-02T15:11:48.075Z,87.70
2018-02-02T15:14:16.325Z,87.70
2018-02-02T15:16:43.822Z,87.80
2018-02-02T15:19:11.324Z,88.10
2018-02-02T15:21:38.806Z,88.00
2018-02-02T15:24:07.065Z,88.40
2018-02-02T15:26:34.548Z,88.40
2018-02-02T15:29:02.836Z,87.70
2018-02-02T15:31:31.259Z,87.60
2018-02-02T15:33:58.750Z,88.10
2018-02-02T15:36:26.300Z,87.90
2018-02-02T15:38:55.290Z,89.30
2018-02-02T15:41:22.783Z,89.30
2018-02-02T15:43:50.267Z,89.00
2018-02-02T15:46:17.772Z,89.60
2018-02-02T15:48:45.264Z,90.00
2018-02-02T15:51:12.771Z,90.20
2018-02-02T15:53:40.255Z,90.50
2018-02-02T15:56:08.599Z,90.60
2018-02-02T15:58:36.431Z,90.60
2018-02-02T16:01:03.928Z,90.60
2018-02-02T16:03:31.444Z,90.60
2018-02-02T16:05:58.923Z,90.40
2018-02-02T16:08:26.406Z,90.30
2018-02-02T16:10:53.908Z,90.30
2018-02-02T16:13:21.394Z,89.30
2018-02-02T16:15:48.916Z,88.40
2018-02-02T16:18:16.407Z,88.10
2018-02-02T16:20:43.882Z,87.60
2018-02-02T16:23:11.380Z,87.30
2018-02-02T16:25:39.653Z,87.40
2018-02-02T16:28:07.959Z,86.50
2018-02-02T16:30:35.458Z,86.50
2018-02-02T16:33:03.080Z,86.60
2018-02-02T16:35:30.610Z,87.20
2018-02-02T16:37:58.087Z,87.60
2018-02-02T16:40:25.599Z,87.70
2018-02-02T16:42:53.153Z,88.20
2018-02-02T16:45:20.618Z,87.40
2018-02-02T16:47:48.137Z,86.50
2018-02-02T16:50:15.631Z,86.00
2018-02-02T16:52:43.145Z,85.20
2018-02-02T16:55:10.650Z,85.60
2018-02-02T16:57:38.137Z,85.90
2018-02-02T17:00:05.657Z,84.80
2018-02-02T17:02:33.478Z,85.60
2018-02-02T17:05:00.968Z,86.00
2018-02-02T17:07:28.470Z,85.10
2018-02-02T17:09:55.998Z,85.80
2018-02-02T17:12:23.511Z,85.90
2018-02-02T17:14:51.012Z,85.60
2018-02-02T17:17:18.572Z,86.40
2018-02-02T17:19:46.850Z,86.90
2018-02-02T17:22:14.533Z,86.80
2018-02-02T17:24:42.807Z,88.20
2018-02-02T17:27:11.067Z,88.30
2018-02-02T17:29:38.642Z,88.30
2018-02-02T17:32:06.955Z,89.40
2018-02-02T17:34:34.460Z,89.40
2018-02-02T17:37:02.009Z,89.80
2018-02-02T17:39:29.599Z,90.00
2018-02-02T17:41:57.938Z,90.10
2018-02-02T17:44:25.482Z,90.10
2018-02-02T17:46:53.016Z,90.10
2018-02-02T17:49:20.589Z,90.00
2018-02-02T17:51:48.143Z,89.50
2018-02-02T17:54:15.981Z,88.90
2018-02-02T17:56:44.445Z,89.50
2018-02-02T17:59:12.744Z,89.20
2018-02-02T18:01:41.762Z,89.10
2018-02-02T18:04:09.329Z,88.80
2018-02-02T18:06:36.900Z,88.50
2018-02-02T18:09:04.513Z,88.70
2018-02-02T18:11:32.076Z,88.20
2018-02-02T18:14:00.396Z,88.30
2018-02-02T18:16:28.760Z,87.80
2018-02-02T18:18:56.311Z,87.80
2018-02-02T18:21:24.064Z,87.50
2018-02-02T18:23:51.653Z,87.50
2018-02-02T18:26:19.233Z,87.80
2018-02-02T18:28:46.860Z,87.80
2018-02-02T18:31:14.455Z,87.90
2018-02-02T18:33:42.331Z,88.10
2018-02-02T18:36:10.686Z,88.30
2018-02-02T18:38:38.306Z,88.20
2018-02-02T18:41:05.923Z,88.10
2018-02-02T18:43:33.525Z,88.10
2018-02-02T18:46:01.131Z,87.50
2018-02-02T18:48:28.733Z,88.30
2018-02-02T18:50:56.319Z,88.10
2018-02-02T18:53:23.920Z,88.30
2018-02-02T18:55:51.691Z,87.60
2018-02-02T18:58:20.056Z,88.40
2018-02-02T19:00:48.836Z,87.40
2018-02-02T19:03:16.444Z,87.30
2018-02-02T19:05:44.063Z,87.80
2018-02-02T19:08:11.777Z,87.70
2018-02-02T19:10:39.374Z,87.40
2018-02-02T19:13:06.972Z,87.80
2018-02-02T19:15:35.354Z,87.70
2018-02-02T19:18:03.710Z,88.40
2018-02-02T19:20:31.314Z,88.40
2018-02-02T19:22:58.897Z,88.20
2018-02-02T19:25:26.498Z,87.70
2018-02-02T19:27:54.845Z,88.00
2018-02-02T19:30:22.469Z,87.90
2018-02-02T19:32:51.786Z,87.30
2018-02-02T19:35:19.359Z,87.50
2018-02-02T19:37:46.961Z,87.80
2018-02-02T19:40:15.315Z,87.90
2018-02-02T19:42:42.916Z,87.90
2018-02-02T19:45:10.509Z,88.20
2018-02-02T19:47:38.092Z,88.70
2018-02-02T19:50:05.690Z,88.80
2018-02-02T19:52:34.063Z,89.10
2018-02-02T19:55:02.434Z,89.40
2018-02-02T19:57:30.811Z,89.50
2018-02-02T19:59:59.190Z,89.90
2018-02-02T20:02:27.537Z,90.10
2018-02-02T20:04:55.277Z,90.10
2018-02-02T20:07:22.869Z,90.10
2018-02-02T20:09:50.457Z,90.30
2018-02-02T20:12:18.948Z,90.70
2018-02-02T20:14:46.530Z,90.70
2018-02-02T20:17:14.116Z,90.50
2018-02-02T20:19:41.706Z,90.70
2018-02-02T20:22:10.074Z,90.70
2018-02-02T20:24:37.692Z,90.70
2018-02-02T20:27:05.280Z,90.90
2018-02-02T20:29:32.884Z,90.80
2018-02-02T20:32:00.512Z,91.10
2018-02-02T20:34:28.159Z,91.10
2018-02-02T20:36:55.732Z,91.10
2018-02-02T20:39:23.354Z,91.10
2018-02-02T20:41:50.928Z,91.40
2018-02-02T20:44:18.630Z,91.10
2018-02-02T20:46:47.001Z,91.20
2018-02-02T20:49:15.371Z,91.00
2018-02-02T20:51:42.985Z,91.10
2018-02-02T20:54:10.586Z,91.20
2018-02-02T20:56:38.192Z,91.30
2018-02-02T20:59:05.780Z,91.60
2018-02-02T21:01:33.361Z,91.60
2018-02-02T21:04:00.957Z,91.70
2018-02-02T21:06:28.608Z,91.70
2018-02-02T21:08:56.943Z,91.80
2018-02-02T21:11:24.539Z,91.70
2018-02-02T21:13:52.895Z,91.90
2018-02-02T21:16:20.489Z,91.90
2018-02-02T21:18:48.852Z,92.00
2018-02-02T21:21:17.222Z,91.90
2018-02-02T21:23:44.833Z,91.90
2018-02-02T21:26:12.412Z,92.10
2018-02-02T21:28:40.010Z,92.10
2018-02-02T21:31:08.410Z,92.00
2018-02-02T21:33:35.986Z,92.10
2018-02-02T21:36:03.579Z,92.00
2018-02-02T21:38:31.171Z,92.00
2018-02-02T21:40:59.548Z,92.00
2018-02-02T21:43:27.893Z,92.00
2018-02-02T21:45:55.499Z,91.90
2018-02-02T21:48:23.090Z,91.70
2018-02-02T21:50:50.687Z,91.60
2018-02-02T21:53:18.284Z,91.50
2018-02-02T21:55:45.886Z,91.50
2018-02-02T21:58:13.537Z,91.40
2018-02-02T22:00:41.089Z,91.60
2018-02-02T22:03:08.647Z,91.50
2018-02-02T22:05:36.213Z,91.50
2018-02-02T22:08:03.785Z,91.40
2018-02-02T22:10:31.298Z,91.40
2018-02-02T22:12:59.560Z,91.50
2018-02-02T22:15:27.053Z,91.40
2018-02-02T22:17:54.541Z,91.40
2018-02-02T22:20:22.035Z,91.40
2018-02-02T22:22:50.372Z,91.30
2018-02-02T22:25:17.888Z,91.30
2018-02-02T22:27:46.146Z,91.30
2018-02-02T22:30:14.408Z,91.70
2018-02-02T22:32:41.892Z,91.20
2018-02-02T22:35:10.164Z,91.40
2018-02-02T22:37:38.415Z,91.40
2018-02-02T22:40:05.905Z,91.40
2018-02-02T22:42:34.191Z,91.40
2018-02-02T22:45:01.689Z,91.40
2018-02-02T22:47:29.184Z,91.40
2018-02-02T22:49:57.448Z,91.40
2018-02-02T22:52:24.935Z,91.30
2018-02-02T22:54:52.578Z,91.30
2018-02-02T22:57:20.832Z,91.30
2018-02-02T22:59:48.321Z,91.30
2018-02-02T23:02:16.588Z,91.50
2018-02-02T23:04:44.835Z,91.60
2018-02-02T23:07:12.351Z,91.50
2018-02-02T23:09:39.838Z,91.50
2018-02-02T23:12:08.114Z,91.60
2018-02-02T23:14:35.614Z,91.60
2018-02-02T23:17:03.871Z,91.80
2018-02-02T23:19:31.383Z,92.00
2018-02-02T23:21:58.907Z,91.80
2018-02-02T23:24:27.155Z,91.80
2018-02-02T23:26:54.688Z,91.90
2018-02-02T23:29:22.181Z,91.90
2018-02-02T23:31:49.673Z,91.90
2018-02-02T23:34:17.174Z,92.00
2018-02-02T23:36:45.580Z,91.80
2018-02-02T23:39:13.078Z,91.90
2018-02-02T23:41:40.574Z,91.80
2018-02-02T23:44:08.062Z,91.80
2018-02-02T23:46:36.343Z,91.90
2018-02-02T23:49:04.606Z,91.90
2018-02-02T23:51:32.858Z,91.80
2018-02-02T23:54:00.379Z,91.80
2018-02-02T23:56:27.868Z,91.80
2018-02-02T23:58:55.362Z,91.80
